Time;durP1;ratioP1;P1;durP2;ratioP2;P2;SDS_P1;SDS_P2;PMS_P1;PMS_P2;Temp;Humidity;BMP_temperature;BMP_pressure;BME280_temperature;BME280_humidity;BME280_pressure;Samples;Min_cycle;Max_cycle;Signal;HPM_P1;HPM_P2
2022/04/04 00:00:44;;;;;;;8.95;7.00;;;;;;;3.30;56.56;95429.16;4988014;28;20023;-59
2022/04/04 00:03:10;;;;;;;11.13;7.85;;;;;;;3.03;57.01;95384.03;4987914;28;20054;-66
2022/04/04 00:05:36;;;;;;;8.45;6.72;;;;;;;3.22;56.81;95408.13;4988035;28;20126;-59
2022/04/04 00:08:02;;;;;;;8.40;6.85;;;;;;;3.42;55.90;95425.41;4987991;28;20117;-59
2022/04/04 00:10:28;;;;;;;8.32;6.15;;;;;;;3.48;56.21;95444.81;4988263;28;20048;-55
2022/04/04 00:12:54;;;;;;;9.48;7.20;;;;;;;3.33;57.10;95427.38;4987074;28;20117;-60
2022/04/04 00:15:20;;;;;;;9.00;6.72;;;;;;;3.02;56.31;95390.03;4987601;28;20129;-58
2022/04/04 00:17:46;;;;;;;10.00;6.85;;;;;;;2.99;56.93;95388.38;4988461;28;20120;-59
2022/04/04 00:20:12;;;;;;;10.30;7.43;;;;;;;3.21;56.86;95420.91;4987871;28;20030;-59
2022/04/04 00:22:38;;;;;;;7.60;5.80;;;;;;;2.85;57.66;95370.09;4988068;28;20391;-60
2022/04/04 00:25:04;;;;;;;8.57;7.28;;;;;;;3.23;57.29;95429.34;4987618;28;20029;-58
2022/04/04 00:27:30;;;;;;;7.78;6.00;;;;;;;3.35;56.89;95438.41;4987594;28;20105;-65
2022/04/04 00:29:56;;;;;;;8.80;5.97;;;;;;;3.40;57.11;95439.09;4988588;28;20570;-65
2022/04/04 00:32:21;;;;;;;8.45;6.28;;;;;;;3.06;56.90;95381.41;4992007;28;20101;-59
2022/04/04 00:34:47;;;;;;;9.40;6.28;;;;;;;3.34;56.68;95427.34;4991723;28;20438;-62
2022/04/04 00:37:12;;;;;;;9.25;6.28;;;;;;;3.42;56.91;95440.72;4991815;28;20034;-58
2022/04/04 00:39:38;;;;;;;11.57;7.97;;;;;;;3.52;56.86;95441.28;4991102;28;20021;-58
2022/04/04 00:42:04;;;;;;;11.20;6.85;;;;;;;3.19;56.71;95410.75;4991807;28;20018;-61
2022/04/04 00:44:29;;;;;;;9.30;6.95;;;;;;;3.42;57.12;95444.97;4991985;28;20041;-59
2022/04/04 00:46:55;;;;;;;8.95;6.70;;;;;;;3.40;57.16;95445.03;4990839;28;20403;-59
2022/04/04 00:49:20;;;;;;;8.77;6.43;;;;;;;3.39;57.05;95437.41;4991860;28;20040;-59
2022/04/04 00:51:46;;;;;;;5.82;3.42;;;;;;;3.15;57.45;95444.00;4990889;28;20136;-62
2022/04/04 00:54:13;;;;;;;15.75;6.88;;;;;;;2.83;58.09;95417.69;4991395;28;20489;-61
2022/04/04 00:56:38;;;;;;;10.05;7.57;;;;;;;2.98;58.44;95452.94;4991422;28;20109;-63
2022/04/04 00:59:05;;;;;;;8.45;5.18;;;;;;;2.95;58.12;95455.56;4991463;28;20110;-62
2022/04/04 01:01:33;;;;;;;7.15;5.97;;;;;;;2.68;58.31;95418.94;4990999;28;20030;-59
2022/04/04 01:03:59;;;;;;;8.57;6.10;;;;;;;2.72;58.78;95426.47;4990976;28;20038;-59
2022/04/04 01:06:24;;;;;;;9.05;6.57;;;;;;;2.83;58.67;95451.63;4991106;28;20496;-61
2022/04/04 01:08:50;;;;;;;8.60;6.38;;;;;;;2.67;58.66;95432.53;4990839;28;20030;-59
2022/04/04 01:11:16;;;;;;;9.25;6.00;;;;;;;2.88;58.57;95438.78;4991467;28;20062;-58
2022/04/04 01:13:46;;;;;;;7.20;5.70;;;;;;;3.01;58.37;95447.78;4990381;28;20019;-59
2022/04/04 01:16:12;;;;;;;9.30;6.20;;;;;;;2.92;58.05;95420.84;4991128;28;20510;-60
2022/04/04 01:18:37;;;;;;;8.35;5.72;;;;;;;3.05;57.46;95439.19;4990803;28;20234;-60
2022/04/04 01:21:02;;;;;;;9.23;6.25;;;;;;;3.08;56.91;95438.25;4991256;28;20026;-59
2022/04/04 01:23:37;;;;;;;9.73;6.25;;;;;;;2.90;57.73;95426.84;4990663;28;20023;-58
2022/04/04 01:26:02;;;;;;;6.65;5.93;;;;;;;3.09;57.89;95435.66;4990214;28;20418;-61
2022/04/04 01:28:28;;;;;;;8.90;6.20;;;;;;;3.03;57.62;95438.38;4989710;28;20045;-60
2022/04/04 01:30:53;;;;;;;8.35;5.97;;;;;;;2.96;57.55;95420.75;4991122;28;20030;-57
2022/04/04 01:33:19;;;;;;;8.23;6.07;;;;;;;3.04;57.73;95437.50;4990957;28;20493;-58
2022/04/04 01:35:45;;;;;;;7.97;5.93;;;;;;;3.02;56.70;95423.16;4990720;28;20415;-57
2022/04/04 01:38:11;;;;;;;7.10;5.30;;;;;;;2.64;56.96;95389.31;4990237;28;20049;-61
2022/04/04 01:40:36;;;;;;;7.55;5.18;;;;;;;2.54;57.40;95383.63;4990402;28;20061;-58
2022/04/04 01:43:02;;;;;;;9.75;6.75;;;;;;;2.65;58.05;95432.56;4989667;28;20569;-58
2022/04/04 01:48:11;;;;;;;7.72;5.22;;;;;;;2.51;58.58;95440.56;4990475;28;20061;-61
2022/04/04 01:50:37;;;;;;;7.88;5.45;;;;;;;2.56;58.32;95446.38;4989884;28;20042;-58
2022/04/04 01:55:47;;;;;;;8.50;5.85;;;;;;;2.23;58.77;95414.97;4990514;28;20057;-58
2022/04/04 01:58:13;;;;;;;9.35;6.65;;;;;;;1.83;59.17;95365.00;4990331;28;20720;-61
2022/04/04 02:00:40;;;;;;;9.13;6.03;;;;;;;2.34;59.01;95430.78;4990374;28;20502;-58
2022/04/04 02:03:06;;;;;;;8.32;5.65;;;;;;;2.19;58.38;95398.06;4989495;28;20117;-58
2022/04/04 02:05:31;;;;;;;7.60;6.03;;;;;;;2.55;58.63;95446.41;4990102;28;20104;-59
2022/04/04 02:07:57;;;;;;;8.38;5.90;;;;;;;2.58;58.42;95442.06;4989921;28;20147;-58
2022/04/04 02:10:22;;;;;;;7.50;5.90;;;;;;;2.74;58.15;95455.25;4989982;28;20540;-60
2022/04/04 02:12:48;;;;;;;8.57;5.63;;;;;;;2.51;57.76;95401.53;4989648;28;20069;-63
2022/04/04 02:15:14;;;;;;;7.60;5.85;;;;;;;2.83;57.51;95445.72;4989315;28;20391;-58
2022/04/04 02:17:39;;;;;;;7.43;5.28;;;;;;;2.88;57.37;95436.25;4990036;28;20461;-62
2022/04/04 02:20:08;;;;;;;8.50;6.03;;;;;;;2.86;57.85;95432.91;4989800;28;20034;-64
2022/04/04 02:22:34;;;;;;;10.68;6.43;;;;;;;2.58;57.62;95393.69;4989581;28;20084;-61
2022/04/04 02:25:00;;;;;;;7.78;6.00;;;;;;;2.79;57.48;95427.13;4989572;28;20023;-59
2022/04/04 02:27:26;;;;;;;7.38;5.97;;;;;;;2.82;57.93;95429.59;4989367;28;20026;-64
2022/04/04 02:29:52;;;;;;;7.95;6.07;;;;;;;2.83;57.52;95425.34;4988484;28;20379;-58
2022/04/04 02:32:18;;;;;;;7.68;5.93;;;;;;;2.90;57.03;95427.69;4989571;28;20089;-61
2022/04/04 02:34:43;;;;;;;6.97;4.65;;;;;;;2.91;56.95;95426.81;4989706;28;20414;-61
2022/04/04 02:37:09;;;;;;;8.68;6.10;;;;;;;2.84;55.94;95415.13;4988162;28;20030;-60
2022/04/04 02:39:34;;;;;;;9.00;6.20;;;;;;;2.87;56.14;95421.81;4988983;28;20030;-58
2022/04/04 02:41:59;;;;;;;9.00;6.25;;;;;;;2.68;56.10;95381.56;4989601;28;20031;-59
2022/04/04 02:44:25;;;;;;;9.00;6.65;;;;;;;2.84;56.54;95412.56;4989451;28;20022;-61
2022/04/04 02:46:50;;;;;;;8.73;6.10;;;;;;;2.90;55.63;95421.75;4989302;28;20069;-58
2022/04/04 02:49:16;;;;;;;7.10;4.85;;;;;;;2.74;57.00;95411.97;4989133;28;20030;-58
2022/04/04 02:51:41;;;;;;;9.63;6.63;;;;;;;2.70;56.64;95412.91;4988989;28;20521;-58
2022/04/04 02:54:07;;;;;;;7.50;4.93;;;;;;;2.68;56.30;95408.75;4988041;28;20109;-65
2022/04/04 02:56:33;;;;;;;9.40;6.60;;;;;;;2.58;56.46;95406.44;4989166;28;20081;-61
2022/04/04 02:59:00;;;;;;;10.40;6.40;;;;;;;2.56;56.44;95397.19;4989372;28;20110;-60
2022/04/04 03:01:26;;;;;;;6.65;4.88;;;;;;;2.03;56.00;95321.28;4989295;28;20449;-59
2022/04/04 03:03:51;;;;;;;10.02;6.32;;;;;;;2.20;56.62;95359.88;4988733;28;20026;-58
2022/04/04 03:06:17;;;;;;;8.18;6.90;;;;;;;2.19;56.51;95370.91;4988960;28;20030;-58
2022/04/04 03:08:43;;;;;;;7.70;6.18;;;;;;;2.29;57.14;95394.44;4988800;28;20030;-62
2022/04/04 03:11:09;;;;;;;7.97;6.47;;;;;;;2.18;57.14;95388.75;4988559;28;20097;-62
2022/04/04 03:13:34;;;;;;;9.38;6.97;;;;;;;2.29;58.03;95407.16;4988593;28;20019;-60
2022/04/04 03:16:00;;;;;;;8.57;6.55;;;;;;;2.35;57.63;95418.91;4988883;28;20037;-63
2022/04/04 03:18:26;;;;;;;10.57;6.95;;;;;;;2.28;57.87;95419.91;4987208;28;20417;-63
2022/04/04 03:20:52;;;;;;;9.48;7.43;;;;;;;1.91;58.09;95375.84;4988886;28;20812;-60
2022/04/04 03:23:19;;;;;;;9.45;7.05;;;;;;;2.04;58.86;95408.63;4989015;28;20033;-63
2022/04/04 03:25:44;;;;;;;9.50;7.10;;;;;;;2.19;58.43;95421.81;4986709;28;20030;-62
2022/04/04 03:28:10;;;;;;;10.63;7.93;;;;;;;2.18;58.40;95426.94;4988679;28;20064;-62
2022/04/04 03:30:35;;;;;;;9.27;7.50;;;;;;;2.14;58.58;95430.44;4988561;28;20061;-62
2022/04/04 03:33:01;;;;;;;9.30;7.45;;;;;;;2.10;58.87;95433.91;4988814;28;20022;-64
2022/04/04 03:35:29;;;;;;;9.95;7.90;;;;;;;2.12;58.93;95437.28;4988628;28;20437;-60
2022/04/04 03:37:57;;;;;;;10.38;8.15;;;;;;;2.02;59.59;95441.72;4988144;28;20026;-64
2022/04/04 03:40:23;;;;;;;10.05;7.57;;;;;;;2.13;59.53;95433.84;4988360;28;20037;-63
2022/04/04 03:42:51;;;;;;;9.98;7.13;;;;;;;2.31;58.66;95443.59;4988665;28;20026;-61
2022/04/04 03:45:17;;;;;;;8.82;7.60;;;;;;;2.30;58.63;95441.09;4988088;28;20120;-64
2022/04/04 03:47:43;;;;;;;10.75;7.57;;;;;;;2.38;58.41;95440.03;4988308;28;20098;-60
2022/04/04 03:50:12;;;;;;;9.50;6.65;;;;;;;2.44;58.16;95443.28;4987843;28;20148;-61
2022/04/04 03:52:39;;;;;;;9.38;7.22;;;;;;;2.25;57.64;95410.66;4988125;28;20424;-62
2022/04/04 03:55:05;;;;;;;9.70;7.43;;;;;;;2.25;57.96;95422.53;4986594;28;20891;-65
2022/04/04 03:57:30;;;;;;;8.05;6.07;;;;;;;2.38;57.71;95439.19;4988397;28;20030;-59
2022/04/04 03:59:56;;;;;;;9.88;8.23;;;;;;;2.55;57.73;95471.88;4988382;28;20705;-60
2022/04/04 04:02:21;;;;;;;10.93;7.57;;;;;;;2.46;56.97;95432.22;4988397;28;20572;-62
2022/04/04 04:04:47;;;;;;;11.02;9.23;;;;;;;2.65;57.58;95469.94;4988796;28;20030;-65
2022/04/04 04:07:15;;;;;;;10.18;8.48;;;;;;;2.55;57.67;95464.22;4992647;28;20026;-68
2022/04/04 04:09:43;;;;;;;10.52;8.18;;;;;;;2.60;57.38;95472.59;4992883;28;20490;-61
2022/04/04 04:12:11;;;;;;;11.05;7.70;;;;;;;2.55;56.88;95477.78;4992716;28;20656;-64
2022/04/04 04:14:37;;;;;;;11.35;9.77;;;;;;;2.55;57.32;95476.97;5006718;28;20029;-57
2022/04/04 04:17:03;;;;;;;11.05;8.85;;;;;;;2.57;57.51;95490.47;5015307;28;20026;-59
2022/04/04 04:22:13;;;;;;;11.18;7.65;;;;;;;2.71;56.69;95493.53;5015680;28;20144;-60
2022/04/04 04:24:39;;;;;;;10.82;7.68;;;;;;;2.68;56.83;95505.50;5015070;28;20033;-59
2022/04/04 04:27:04;;;;;;;12.35;8.80;;;;;;;2.54;56.61;95481.22;5015565;28;20068;-58
2022/04/04 04:29:30;;;;;;;11.95;8.63;;;;;;;2.49;56.87;95477.09;5015201;28;20030;-59
2022/04/04 04:31:55;;;;;;;10.75;8.27;;;;;;;2.32;56.72;95449.50;5015283;28;20093;-58
2022/04/04 04:34:21;;;;;;;10.73;8.68;;;;;;;2.76;56.73;95507.00;5014872;28;20123;-60
2022/04/04 04:36:46;;;;;;;12.20;8.40;;;;;;;2.81;56.30;95509.44;5014950;28;20112;-60
2022/04/04 04:39:12;;;;;;;8.75;7.07;;;;;;;2.00;56.75;95398.53;5011179;28;20547;-58
2022/04/04 04:41:37;;;;;;;10.43;8.90;;;;;;;2.86;56.87;95514.41;5010462;28;20065;-58
2022/04/04 04:44:05;;;;;;;11.10;7.47;;;;;;;2.84;56.90;95511.91;5011727;28;20441;-59
2022/04/04 04:46:31;;;;;;;11.05;8.25;;;;;;;2.79;56.53;95497.59;5011383;28;20120;-59
2022/04/04 04:48:57;;;;;;;17.88;9.52;;;;;;;2.75;56.94;95484.09;5011661;28;20046;-59
2022/04/04 04:51:23;;;;;;;10.35;8.55;;;;;;;2.85;56.16;95494.91;5008155;28;20042;-58
2022/04/04 04:53:49;;;;;;;11.98;9.20;;;;;;;3.01;56.05;95505.53;5001956;28;20101;-58
2022/04/04 04:56:14;;;;;;;11.80;9.20;;;;;;;3.06;56.24;95509.63;4999366;28;20121;-59
2022/04/04 04:58:40;;;;;;;12.10;8.32;;;;;;;3.11;55.24;95510.34;4991675;28;20022;-59
2022/04/04 05:01:06;;;;;;;11.48;9.00;;;;;;;3.16;55.04;95509.41;4994951;28;20041;-58
2022/04/04 05:03:31;;;;;;;13.68;9.15;;;;;;;3.37;55.05;95529.22;5001822;28;20034;-59
2022/04/04 05:05:57;;;;;;;12.98;9.45;;;;;;;3.08;55.01;95479.88;4998215;28;20480;-58
2022/04/04 05:08:23;;;;;;;10.40;8.40;;;;;;;3.16;55.33;95496.66;4999824;28;20536;-60
2022/04/04 05:10:48;;;;;;;10.82;8.70;;;;;;;3.38;55.31;95533.47;4999764;28;20559;-60
2022/04/04 05:13:14;;;;;;;9.48;7.78;;;;;;;3.55;54.20;95529.63;4996073;28;20040;-59
2022/04/04 05:15:40;;;;;;;10.82;9.45;;;;;;;3.33;54.36;95474.13;4993589;28;20025;-58
2022/04/04 05:18:06;;;;;;;11.80;9.32;;;;;;;3.64;54.39;95508.94;5000597;28;20036;-63
2022/04/04 05:20:32;;;;;;;11.35;8.82;;;;;;;3.79;53.98;95535.78;5000867;28;20022;-67
2022/04/04 05:22:57;;;;;;;11.65;8.95;;;;;;;3.58;53.82;95476.81;5008248;28;20093;-59
2022/04/04 05:25:23;;;;;;;12.90;9.18;;;;;;;3.84;54.23;95509.25;5010769;28;20076;-58
2022/04/04 05:27:50;;;;;;;12.02;8.32;;;;;;;3.61;53.96;95456.34;5010535;28;20034;-60
2022/04/04 05:30:17;;;;;;;12.73;9.32;;;;;;;3.84;54.26;95508.41;5010585;28;20030;-58
2022/04/04 05:32:43;;;;;;;10.75;9.00;;;;;;;3.99;54.53;95507.13;5006019;28;20037;-54
2022/04/04 05:35:11;;;;;;;12.23;8.93;;;;;;;4.33;53.87;95546.94;5001071;28;20026;-58
2022/04/04 05:37:37;;;;;;;12.50;8.18;;;;;;;4.30;53.46;95550.44;4998987;28;20030;-59
2022/04/04 05:40:03;;;;;;;13.43;10.57;;;;;;;4.25;54.13;95557.41;5005265;28;20095;-58
2022/04/04 05:42:29;;;;;;;14.13;10.07;;;;;;;4.31;54.18;95558.94;5005146;28;20033;-59
2022/04/04 05:44:55;;;;;;;15.48;9.57;;;;;;;4.29;53.89;95545.38;5003077;28;20104;-60
2022/04/04 05:47:21;;;;;;;12.50;9.50;;;;;;;4.40;53.80;95558.66;5003773;28;20045;-58
2022/04/04 05:49:50;;;;;;;11.93;9.63;;;;;;;4.39;54.59;95555.28;5002469;28;20038;-60
2022/04/04 05:52:16;;;;;;;14.02;9.95;;;;;;;4.34;54.14;95554.56;5006714;28;20508;-61
2022/04/04 05:54:54;;;;;;;14.55;10.57;;;;;;;4.38;54.36;95560.44;5005167;28;20040;-61
2022/04/04 05:57:22;;;;;;;13.80;10.40;;;;;;;4.70;54.19;95556.88;5007227;28;20026;-59
2022/04/04 05:59:47;;;;;;;14.55;11.55;;;;;;;4.89;53.15;95563.97;5003464;28;20038;-58
2022/04/04 06:02:13;;;;;;;13.13;10.80;;;;;;;4.87;52.35;95535.06;5002159;28;20022;-61
2022/04/04 06:04:38;;;;;;;13.48;10.07;;;;;;;5.27;52.39;95567.81;4999437;28;20125;-59
2022/04/04 06:07:04;;;;;;;14.32;10.10;;;;;;;5.12;51.95;95530.81;5002013;28;20022;-63
2022/04/04 06:09:30;;;;;;;12.32;10.30;;;;;;;5.11;50.68;95515.53;5003316;28;20089;-58
2022/04/04 06:11:55;;;;;;;12.23;9.45;;;;;;;5.29;50.76;95539.66;4990982;28;20399;-61
2022/04/04 06:14:20;;;;;;;13.60;10.68;;;;;;;5.17;50.64;95489.78;5002467;28;20072;-61
2022/04/04 06:16:46;;;;;;;15.38;10.68;;;;;;;5.71;50.51;95559.53;4990618;28;20386;-59
2022/04/04 06:19:11;;;;;;;15.43;10.95;;;;;;;5.81;50.23;95557.47;4990399;28;20482;-59
2022/04/04 06:21:37;;;;;;;13.50;10.73;;;;;;;5.98;49.94;95541.53;4990282;28;20031;-62
2022/04/04 06:24:02;;;;;;;17.20;11.85;;;;;;;5.67;50.11;95514.44;4990451;28;20027;-58
2022/04/04 06:26:30;;;;;;;15.82;10.88;;;;;;;5.81;49.98;95549.81;4989443;28;20023;-61
2022/04/04 06:28:56;;;;;;;14.02;10.60;;;;;;;5.79;50.11;95546.44;4996793;28;20599;-57
2022/04/04 06:31:22;;;;;;;14.55;10.55;;;;;;;6.02;49.63;95522.63;5006899;28;20030;-58
2022/04/04 06:33:48;;;;;;;13.60;10.77;;;;;;;6.27;49.46;95525.09;5003317;28;20642;-57
2022/04/04 06:36:13;;;;;;;13.70;11.85;;;;;;;6.46;48.46;95534.63;5006581;28;20032;-62
2022/04/04 06:38:39;;;;;;;13.88;11.50;;;;;;;6.57;48.66;95548.69;5000115;28;20030;-60
2022/04/04 06:41:05;;;;;;;13.93;10.90;;;;;;;6.56;48.25;95544.47;5006519;28;20022;-57
2022/04/04 06:43:30;;;;;;;14.70;11.20;;;;;;;6.76;48.32;95548.81;5003635;28;20414;-58
2022/04/04 06:45:55;;;;;;;16.08;10.70;;;;;;;6.61;48.41;95549.44;5006004;28;20057;-63
2022/04/04 06:48:23;;;;;;;14.50;11.23;;;;;;;6.33;48.59;95555.59;5004446;28;20042;-58
2022/04/04 06:50:49;;;;;;;15.63;12.10;;;;;;;6.33;49.03;95552.19;5005585;28;20504;-59
2022/04/04 06:53:15;;;;;;;14.25;10.15;;;;;;;6.52;49.21;95544.66;5005742;28;20063;-58
2022/04/04 06:55:42;;;;;;;16.10;11.05;;;;;;;6.86;48.30;95544.16;5002917;28;20022;-58
2022/04/04 06:58:07;;;;;;;14.50;11.30;;;;;;;7.05;48.12;95554.53;5006052;28;20120;-61
2022/04/04 07:00:34;;;;;;;16.67;11.00;;;;;;;7.26;48.01;95554.53;5005873;28;20528;-59
2022/04/04 07:03:01;;;;;;;14.55;11.70;;;;;;;7.39;47.16;95547.97;5008744;28;20030;-59
2022/04/04 07:05:27;;;;;;;13.95;11.15;;;;;;;7.54;45.95;95542.22;5009092;28;20397;-60
2022/04/04 07:07:53;;;;;;;14.05;11.18;;;;;;;7.42;46.72;95549.59;5009152;28;20528;-59
2022/04/04 07:10:19;;;;;;;12.82;9.18;;;;;;;7.27;44.61;95528.81;4993014;28;20046;-58
2022/04/04 07:12:44;;;;;;;12.02;10.05;;;;;;;7.18;44.73;95545.44;4989552;28;20065;-58
2022/04/04 07:15:11;;;;;;;12.65;9.93;;;;;;;7.23;45.05;95557.22;4989078;28;20030;-57
2022/04/04 07:17:41;;;;;;;16.15;10.43;;;;;;;7.28;45.23;95555.28;4988933;28;20101;-57
2022/04/04 07:20:08;;;;;;;14.07;10.15;;;;;;;7.33;44.67;95553.38;5005819;28;20030;-60
2022/04/04 07:22:38;;;;;;;12.07;9.48;;;;;;;7.69;43.74;95550.13;5008761;28;20430;-61
2022/04/04 07:25:05;;;;;;;12.15;9.75;;;;;;;7.81;43.07;95562.47;4999802;28;20084;-57
2022/04/04 07:27:31;;;;;;;11.60;9.05;;;;;;;7.88;43.06;95558.72;4988411;28;20073;-59
2022/04/04 07:29:57;;;;;;;12.25;9.48;;;;;;;8.15;42.22;95562.69;4989242;28;20125;-60
2022/04/04 07:32:22;;;;;;;12.90;9.48;;;;;;;8.34;41.33;95522.44;4988957;28;20109;-59
2022/04/04 07:34:48;;;;;;;14.82;10.90;;;;;;;8.78;40.91;95562.44;4989219;28;20041;-60
2022/04/04 07:37:13;;;;;;;13.60;10.88;;;;;;;8.25;41.02;95472.31;4989001;28;20102;-58
2022/04/04 07:39:39;;;;;;;15.20;10.70;;;;;;;8.82;40.05;95554.50;4988058;28;20159;-58
2022/04/04 07:42:06;;;;;;;11.68;10.13;;;;;;;8.82;39.65;95572.50;4988903;28;20030;-59
2022/04/04 07:44:31;;;;;;;11.63;10.30;;;;;;;8.75;40.41;95542.81;4988341;28;20035;-60
2022/04/04 07:46:57;;;;;;;12.48;10.32;;;;;;;9.02;39.71;95556.13;4988453;28;20101;-58
2022/04/04 07:49:23;;;;;;;12.05;9.30;;;;;;;9.31;39.20;95564.16;4987341;28;20065;-65
2022/04/04 07:51:49;;;;;;;11.25;9.13;;;;;;;9.33;38.02;95562.34;4988296;28;20428;-60
2022/04/04 07:54:14;;;;;;;13.27;9.13;;;;;;;9.28;37.92;95563.47;4988342;28;20096;-61
2022/04/04 07:56:40;;;;;;;11.93;9.20;;;;;;;9.37;38.24;95560.44;4988768;28;20039;-63
2022/04/04 07:59:06;;;;;;;17.77;11.05;;;;;;;9.44;37.64;95546.34;4988798;28;20030;-59
2022/04/04 08:01:32;;;;;;;12.35;9.77;;;;;;;9.52;37.70;95536.50;4988746;28;20038;-60
2022/04/04 08:03:57;;;;;;;11.32;9.75;;;;;;;9.67;37.17;95573.50;4988220;28;20508;-61
2022/04/04 08:06:22;;;;;;;9.63;8.63;;;;;;;9.40;36.69;95559.47;4988768;28;20114;-59
2022/04/04 08:08:48;;;;;;;12.25;9.60;;;;;;;9.69;36.83;95569.13;4988569;28;20373;-64
2022/04/04 08:11:13;;;;;;;15.43;12.95;;;;;;;9.44;38.24;95573.84;4988435;28;20524;-63
2022/04/04 08:13:43;;;;;;;11.85;9.15;;;;;;;9.87;37.05;95579.41;4987901;28;20031;-59
2022/04/04 08:16:09;;;;;;;11.90;9.35;;;;;;;9.74;36.51;95541.41;4988474;28;20038;-59
2022/04/04 08:18:35;;;;;;;10.82;9.38;;;;;;;10.10;35.94;95530.09;4988080;28;20038;-61
2022/04/04 08:21:00;;;;;;;14.13;10.90;;;;;;;10.35;35.43;95548.63;4988463;28;20022;-58
2022/04/04 08:23:29;;;;;;;11.77;9.63;;;;;;;10.53;35.41;95552.78;4988306;28;20052;-60
2022/04/04 08:26:01;;;;;;;11.60;9.68;;;;;;;10.45;35.79;95537.69;4988124;28;20057;-58
2022/04/04 08:28:30;;;;;;;12.23;9.48;;;;;;;10.43;36.16;95547.28;4988229;28;20046;-59
2022/04/04 08:30:56;;;;;;;13.93;10.93;;;;;;;10.48;36.51;95544.47;4988731;28;20121;-60
2022/04/04 08:33:21;;;;;;;10.75;9.27;;;;;;;10.48;35.61;95545.28;4989024;28;20110;-60
2022/04/04 08:35:47;;;;;;;13.63;8.80;;;;;;;10.65;36.07;95535.78;4988987;28;20092;-60
2022/04/04 08:38:13;;;;;;;14.55;10.93;;;;;;;10.88;34.40;95495.81;4987457;28;20450;-63
2022/04/04 08:40:38;;;;;;;15.35;12.75;;;;;;;11.11;35.06;95506.59;4987897;28;20038;-62
2022/04/04 08:43:14;;;;;;;12.52;9.85;;;;;;;10.68;34.75;95484.03;4988056;28;20156;-59
2022/04/04 08:45:42;;;;;;;12.23;9.40;;;;;;;10.84;34.84;95525.28;4987425;28;20038;-60
2022/04/04 08:48:09;;;;;;;9.93;8.57;;;;;;;11.43;33.67;95502.13;4988257;28;20072;-60
2022/04/04 08:50:36;;;;;;;15.98;11.50;;;;;;;11.68;33.25;95461.94;4987624;28;20438;-61
2022/04/04 08:53:02;;;;;;;15.35;11.00;;;;;;;12.33;32.98;95492.47;4991420;28;20025;-58
2022/04/04 08:55:28;;;;;;;14.18;10.05;;;;;;;12.10;33.80;95501.59;4991332;28;20436;-61
2022/04/04 08:57:56;;;;;;;12.05;9.15;;;;;;;12.41;32.45;95490.22;4991482;28;20065;-60
2022/04/04 09:00:21;;;;;;;11.73;9.23;;;;;;;12.40;32.63;95475.63;4991599;28;20421;-58
2022/04/04 09:03:02;;;;;;;12.63;9.27;;;;;;;12.33;31.70;95471.78;4990651;28;20038;-60
2022/04/04 09:05:29;;;;;;;11.68;8.07;;;;;;;12.35;32.42;95490.59;4991509;28;20409;-61
2022/04/04 09:08:05;;;;;;;13.40;9.68;;;;;;;11.97;32.86;95492.94;4991419;28;20104;-62
2022/04/04 09:10:37;;;;;;;14.43;8.90;;;;;;;12.23;32.79;95481.84;4991327;28;20122;-59
2022/04/04 09:13:12;;;;;;;12.30;9.88;;;;;;;12.98;31.20;95467.63;4991051;28;20026;-63
2022/04/04 09:16:03;;;;;;;10.60;8.48;;;;;;;14.28;29.31;95470.97;4989986;28;20058;-62
2022/04/04 09:18:41;;;;;;;16.33;11.48;;;;;;;14.89;28.96;95472.72;4990765;28;20352;-61
2022/04/04 09:21:29;;;;;;;13.00;10.02;;;;;;;15.51;28.21;95466.41;4990964;28;20045;-62
2022/04/04 09:23:59;;;;;;;11.45;9.48;;;;;;;15.08;28.11;95441.00;4991197;28;20101;-58
2022/04/04 09:26:42;;;;;;;16.83;9.68;;;;;;;16.19;26.90;95419.59;4990229;28;20025;-60
2022/04/04 09:29:16;;;;;;;11.68;9.43;;;;;;;15.93;27.08;95452.84;4990567;28;20109;-58
2022/04/04 09:32:05;;;;;;;10.60;8.60;;;;;;;16.41;26.69;95447.34;4989219;28;20034;-60
2022/04/04 09:34:53;;;;;;;10.07;8.40;;;;;;;17.84;24.86;95440.03;4990454;28;20057;-61
2022/04/04 09:37:23;;;;;;;11.25;9.32;;;;;;;17.56;25.21;95436.31;4990789;28;20384;-60
2022/04/04 09:40:01;;;;;;;11.00;8.38;;;;;;;18.50;24.03;95433.53;4990096;28;20042;-61
2022/04/04 09:42:28;;;;;;;13.05;9.88;;;;;;;19.49;22.90;95417.66;4990711;28;20041;-62
2022/04/04 09:45:09;;;;;;;9.95;8.90;;;;;;;19.71;22.14;95431.34;4988388;28;20069;-61
2022/04/04 09:47:44;;;;;;;11.10;9.18;;;;;;;20.08;21.84;95426.16;4990247;28;20497;-63
2022/04/04 09:50:30;;;;;;;13.82;9.80;;;;;;;18.68;23.26;95424.03;4989846;28;20036;-61
2022/04/04 09:52:57;;;;;;;11.73;9.40;;;;;;;19.35;22.45;95420.72;4990414;28;20034;-61
2022/04/04 09:55:39;;;;;;;10.77;8.75;;;;;;;18.71;23.01;95417.72;4990144;28;20433;-61
2022/04/04 09:58:07;;;;;;;9.50;8.00;;;;;;;18.71;22.71;95415.94;4990111;28;20030;-59
2022/04/04 10:00:37;;;;;;;10.27;8.63;;;;;;;19.32;22.33;95407.94;4989940;28;20019;-62
2022/04/04 10:03:04;;;;;;;10.00;8.25;;;;;;;19.59;22.12;95415.03;4989048;28;20100;-59
2022/04/04 10:05:31;;;;;;;8.75;7.85;;;;;;;19.41;22.39;95399.25;4990232;28;20033;-61
2022/04/04 10:07:57;;;;;;;9.35;8.15;;;;;;;20.29;21.59;95391.06;4990141;28;20453;-61
2022/04/04 10:10:28;;;;;;;19.52;10.15;;;;;;;20.59;21.52;95387.25;4989612;28;20038;-60
2022/04/04 10:12:55;;;;;;;9.45;8.20;;;;;;;20.57;20.82;95313.22;4990121;28;20127;-59
2022/04/04 10:15:22;;;;;;;11.50;8.60;;;;;;;21.19;20.11;95360.41;4989468;28;20048;-60
2022/04/04 10:17:49;;;;;;;11.25;8.85;;;;;;;20.21;21.06;95376.06;4989807;28;20034;-59
2022/04/04 10:20:15;;;;;;;17.48;9.95;;;;;;;18.66;23.32;95380.72;4989537;28;20583;-59
2022/04/04 10:22:40;;;;;;;12.68;8.50;;;;;;;18.24;23.84;95373.16;4988049;28;20153;-60
2022/04/04 10:25:11;;;;;;;11.35;9.35;;;;;;;18.50;23.57;95342.94;4990177;28;20061;-60
2022/04/04 10:27:37;;;;;;;11.27;8.35;;;;;;;18.42;23.52;95323.72;4988983;28;20030;-61
2022/04/04 10:30:08;;;;;;;10.90;8.35;;;;;;;18.83;22.89;95361.78;4990393;28;20038;-58
2022/04/04 10:32:34;;;;;;;10.13;8.40;;;;;;;19.16;22.44;95357.06;4988167;28;20329;-63
2022/04/04 10:35:12;;;;;;;9.90;7.72;;;;;;;18.51;23.00;95322.88;4989468;28;20073;-59
2022/04/04 10:37:44;;;;;;;10.15;7.00;;;;;;;16.94;24.64;95363.28;4988876;28;20387;-61
2022/04/04 10:40:24;;;;;;;10.82;8.02;;;;;;;16.87;25.25;95367.31;4989515;28;20034;-60
2022/04/04 10:43:02;;;;;;;8.98;7.55;;;;;;;15.60;26.74;95360.88;4989527;28;20081;-59
2022/04/04 10:45:29;;;;;;;13.10;7.72;;;;;;;15.07;27.91;95335.50;4989689;28;20034;-59
2022/04/04 10:48:04;;;;;;;10.75;8.18;;;;;;;14.79;27.70;95358.34;4988935;28;20465;-59
2022/04/04 10:50:32;;;;;;;9.00;7.15;;;;;;;14.29;28.67;95347.25;4988628;28;20034;-59
2022/04/04 10:52:59;;;;;;;13.25;7.75;;;;;;;14.23;28.83;95334.72;4989708;28;20486;-60
2022/04/04 10:55:37;;;;;;;8.68;7.50;;;;;;;14.34;29.78;95356.34;4989111;28;20031;-61
2022/04/04 10:58:19;;;;;;;10.95;8.10;;;;;;;14.15;29.71;95345.69;4989448;28;20085;-60
2022/04/04 11:00:54;;;;;;;14.02;8.52;;;;;;;14.48;29.10;95347.59;4989264;28;20042;-62
2022/04/04 11:03:31;;;;;;;14.63;7.95;;;;;;;14.76;28.96;95345.56;4989238;28;20081;-61
2022/04/04 11:09:15;;;;;;;10.90;7.22;;;;;;;15.37;27.73;95341.88;4989432;28;20041;-60
2022/04/04 11:11:55;;;;;;;11.45;7.78;;;;;;;15.75;27.03;95338.88;4989308;28;20034;-60
2022/04/04 11:14:37;;;;;;;11.23;8.68;;;;;;;16.78;26.64;95340.22;4988741;28;20427;-60
2022/04/04 11:17:08;;;;;;;10.25;8.80;;;;;;;17.18;25.48;95333.50;4989255;28;20038;-61
2022/04/04 11:20:04;;;;;;;12.50;7.35;;;;;;;17.01;25.30;95330.53;4989078;28;20049;-58
2022/04/04 11:22:41;;;;;;;10.23;7.35;;;;;;;16.08;26.25;95324.19;4988473;28;20022;-58
2022/04/04 11:25:12;;;;;;;9.82;6.95;;;;;;;17.28;25.05;95326.53;4988793;28;20139;-59
2022/04/04 11:27:39;;;;;;;;;;;;;;;16.78;25.42;95326.41;4988533;28;20113;-58
2022/04/04 11:30:10;;;;;;;9.27;7.18;;;;;;;17.45;24.75;95315.53;4988769;28;20013;-61
2022/04/04 11:32:40;;;;;;;7.47;5.75;;;;;;;14.61;27.93;95326.78;4988717;28;20457;-57
2022/04/04 11:35:22;;;;;;;10.13;7.78;;;;;;;15.82;27.11;95318.47;4988737;28;20454;-59
2022/04/04 11:37:54;;;;;;;10.95;8.82;;;;;;;15.74;27.37;95274.84;4987692;28;20105;-58
2022/04/04 11:40:26;;;;;;;11.73;8.88;;;;;;;16.06;27.00;95270.66;4988517;28;20395;-60
2022/04/04 11:42:52;;;;;;;10.32;7.93;;;;;;;16.26;26.14;95284.63;4988465;28;20026;-58
2022/04/04 11:45:21;;;;;;;10.85;7.88;;;;;;;17.44;24.89;95279.16;4988727;28;20038;-59